createdAt,value
2022-11-23T00:00:20.842Z,99385.50
2022-11-23T00:02:48.637Z,99389.94
2022-11-23T00:05:16.310Z,99385.50
2022-11-23T00:07:44.045Z,99387.19
2022-11-23T00:10:13.435Z,99383.59
2022-11-23T00:12:41.092Z,99385.50
2022-11-23T00:15:09.457Z,99386.34
2022-11-23T00:17:37.066Z,99385.25
2022-11-23T00:20:05.296Z,99387.88
2022-11-23T00:22:32.955Z,99386.91
2022-11-23T00:25:00.741Z,99383.31
2022-11-23T00:27:29.830Z,99383.44
2022-11-23T00:29:57.466Z,99389.53
2022-11-23T00:32:25.127Z,99391.88
2022-11-23T00:34:52.767Z,99385.78
2022-11-23T00:37:20.427Z,99396.31
2022-11-23T00:39:48.072Z,99396.44
2022-11-23T00:42:15.748Z,99388.56
2022-11-23T00:44:44.824Z,99399.09
2022-11-23T00:47:12.474Z,99394.13
2022-11-23T00:49:40.129Z,99399.78
2022-11-23T00:52:07.821Z,99405.75
2022-11-23T00:54:35.426Z,99383.97
2022-11-23T00:57:03.073Z,99400.19
2022-11-23T00:59:31.130Z,99402.00
2022-11-23T01:02:00.586Z,99398.53
2022-11-23T01:04:29.165Z,99397.56
2022-11-23T01:06:58.068Z,99395.22
2022-11-23T01:09:26.862Z,99404.47
2022-11-23T01:11:55.203Z,99407.78
2022-11-23T01:14:23.296Z,99413.03
2022-11-23T01:16:51.065Z,99402.53
2022-11-23T01:19:21.485Z,99411.38
2022-11-23T01:21:49.448Z,99414.03
2022-11-23T01:24:18.795Z,99407.09
2022-11-23T01:26:46.727Z,99417.91
2022-11-23T01:29:14.703Z,99425.63
2022-11-23T01:31:46.601Z,99423.00
2022-11-23T01:34:15.258Z,99425.63
2022-11-23T01:36:45.238Z,99429.94
2022-11-23T01:39:13.543Z,99428.13
2022-11-23T01:41:43.360Z,99424.66
2022-11-23T01:44:30.750Z,99427.03
2022-11-23T01:46:59.972Z,99429.81
2022-11-23T01:49:29.293Z,99432.28
2022-11-23T01:52:00.847Z,99431.59
2022-11-23T01:54:33.122Z,99440.19
2022-11-23T01:57:03.516Z,99443.78
2022-11-23T01:59:32.151Z,99437.56
2022-11-23T02:02:00.666Z,99451.25
2022-11-23T02:04:31.146Z,99450.41
2022-11-23T02:07:01.486Z,99443.66
2022-11-23T02:09:30.919Z,99450.41
2022-11-23T02:11:59.009Z,99446.81
2022-11-23T02:14:27.067Z,99454.97
2022-11-23T02:16:54.757Z,99450.69
2022-11-23T02:19:34.342Z,99454.16
2022-11-23T02:22:03.762Z,99450.53
2022-11-23T02:24:35.480Z,99446.25
2022-11-23T02:27:06.945Z,99445.28
2022-11-23T02:29:34.864Z,99457.19
2022-11-23T02:32:02.579Z,99461.50
2022-11-23T02:34:30.352Z,99453.75
2022-11-23T02:36:58.797Z,99456.91
2022-11-23T02:39:30.612Z,99461.50
2022-11-23T02:41:59.453Z,99462.31
2022-11-23T02:44:33.688Z,99457.19
2022-11-23T02:47:01.474Z,99457.19
2022-11-23T02:49:29.463Z,99473.81
2022-11-23T02:51:57.369Z,99474.34
2022-11-23T02:54:24.992Z,99465.47
2022-11-23T02:56:52.689Z,99466.44
2022-11-23T02:59:20.659Z,99469.09
2022-11-23T03:01:50.336Z,99467.44
2022-11-23T03:04:20.764Z,99469.09
2022-11-23T03:06:50.889Z,99468.25
2022-11-23T03:09:18.729Z,99470.75
2022-11-23T03:11:46.368Z,99473.38
2022-11-23T03:14:14.133Z,99476.00
2022-11-23T03:16:41.825Z,99483.78
2022-11-23T03:19:10.893Z,99482.09
2022-11-23T03:21:38.658Z,99465.09
2022-11-23T03:24:06.961Z,99478.38
2022-11-23T03:26:34.672Z,99479.06
2022-11-23T03:29:02.336Z,99484.31
2022-11-23T03:31:29.999Z,99491.38
2022-11-23T03:33:57.764Z,99494.03
2022-11-23T03:36:26.834Z,99491.53
2022-11-23T03:38:54.496Z,99494.84
2022-11-23T03:41:22.209Z,99499.28
2022-11-23T03:43:49.867Z,99500.13
2022-11-23T03:46:17.591Z,99506.50
2022-11-23T03:48:45.306Z,99499.56
2022-11-23T03:51:13.001Z,99498.72
2022-11-23T03:53:42.098Z,99498.47
2022-11-23T03:56:09.985Z,99504.41
2022-11-23T03:58:37.700Z,99498.59
2022-11-23T04:01:05.378Z,99508.84
2022-11-23T04:03:33.344Z,99516.72
2022-11-23T04:06:01.069Z,99514.94
2022-11-23T04:08:28.698Z,99508.00
2022-11-23T04:10:59.133Z,99503.72
2022-11-23T04:13:27.231Z,99506.22
2022-11-23T04:15:54.874Z,99512.28
2022-11-23T04:18:22.643Z,99506.50
2022-11-23T04:20:50.363Z,99508.97
2022-11-23T04:23:18.049Z,99500.41
2022-11-23T04:25:46.474Z,99507.31
2022-11-23T04:28:15.521Z,99498.72
2022-11-23T04:30:43.209Z,99498.88
2022-11-23T04:33:10.916Z,99492.09
2022-11-23T04:35:38.617Z,99497.88
2022-11-23T04:38:06.346Z,99509.25
2022-11-23T04:40:34.193Z,99510.09
2022-11-23T04:43:02.310Z,99508.16
2022-11-23T04:45:31.403Z,99508.84
2022-11-23T04:47:59.093Z,99509.69
2022-11-23T04:50:26.749Z,99491.81
2022-11-23T04:52:54.544Z,99508.56
2022-11-23T04:55:22.283Z,99513.81
2022-11-23T04:57:50.255Z,99518.25
2022-11-23T05:00:18.568Z,99516.31
2022-11-23T05:02:47.641Z,99508.31
2022-11-23T05:05:15.448Z,99519.78
2022-11-23T05:07:43.179Z,99516.19
2022-11-23T05:10:11.229Z,99510.94
2022-11-23T05:12:38.936Z,99516.88
2022-11-23T05:15:07.468Z,99515.06
2022-11-23T05:17:35.350Z,99515.91
2022-11-23T05:20:05.175Z,99507.03
2022-11-23T05:22:32.942Z,99508.84
2022-11-23T05:25:00.805Z,99506.22
2022-11-23T05:27:28.428Z,99508.69
2022-11-23T05:29:56.093Z,99513.28
2022-11-23T05:32:23.730Z,99504.56
2022-11-23T05:34:51.472Z,99516.72
2022-11-23T05:37:20.471Z,99515.91
2022-11-23T05:39:48.087Z,99522.00
2022-11-23T05:42:15.820Z,99514.41
2022-11-23T05:44:43.480Z,99533.66
2022-11-23T05:47:11.137Z,99514.66
2022-11-23T05:49:38.788Z,99513.56
2022-11-23T05:52:06.780Z,99522.00
2022-11-23T05:54:36.229Z,99525.91
2022-11-23T05:57:03.926Z,99522.16
2022-11-23T05:59:32.037Z,99526.44
2022-11-23T06:01:59.850Z,99520.47
2022-11-23T06:04:27.605Z,99527.94
2022-11-23T06:06:57.295Z,99526.13
2022-11-23T06:09:24.958Z,99513.28
2022-11-23T06:11:53.992Z,99526.28
2022-11-23T06:14:21.676Z,99534.03
2022-11-23T06:16:49.556Z,99533.91
2022-11-23T06:19:17.316Z,99535.72
2022-11-23T06:21:50.134Z,99537.38
2022-11-23T06:24:18.099Z,99538.06
2022-11-23T06:26:45.732Z,99534.75
2022-11-23T06:29:16.208Z,99524.22
2022-11-23T06:31:43.833Z,99529.75
2022-11-23T06:34:11.541Z,99530.56
2022-11-23T06:36:39.221Z,99528.91
2022-11-23T06:39:07.086Z,99533.34
2022-11-23T06:41:34.781Z,99541.94
2022-11-23T06:44:02.562Z,99539.44
2022-11-23T06:46:31.643Z,99546.25
2022-11-23T06:48:59.432Z,99536.66
2022-11-23T06:51:27.080Z,99540.00
2022-11-23T06:53:55.173Z,99543.63
2022-11-23T06:56:23.231Z,99543.63
2022-11-23T06:58:50.933Z,99554.84
2022-11-23T07:01:18.571Z,99541.81
2022-11-23T07:03:47.757Z,99551.53
2022-11-23T07:06:15.500Z,99551.53
2022-11-23T07:08:44.267Z,99555.66
2022-11-23T07:11:12.510Z,99564.53
2022-11-23T07:13:40.450Z,99561.06
2022-11-23T07:16:08.724Z,99565.38
2022-11-23T07:18:36.381Z,99569.94
2022-11-23T07:21:05.396Z,99570.78
2022-11-23T07:23:33.092Z,99571.59
2022-11-23T07:26:00.702Z,99574.09
2022-11-23T07:28:28.318Z,99568.25
2022-11-23T07:30:56.029Z,99571.59
2022-11-23T07:33:23.636Z,99566.03
2022-11-23T07:35:51.397Z,99566.88
2022-11-23T07:38:20.353Z,99582.53
2022-11-23T07:40:50.306Z,99582.66
2022-11-23T07:43:17.919Z,99582.66
2022-11-23T07:45:45.581Z,99583.50
2022-11-23T07:48:13.565Z,99593.06
2022-11-23T07:50:41.205Z,99592.38
2022-11-23T07:53:09.166Z,99600.94
2022-11-23T07:55:38.163Z,99591.13
2022-11-23T07:58:06.482Z,99599.88
2022-11-23T08:00:34.123Z,99597.34
2022-11-23T08:03:26.568Z,99599.72
2022-11-23T08:05:49.433Z,99612.88
2022-11-23T08:08:17.078Z,99601.53
2022-11-23T08:10:51.417Z,99611.22
2022-11-23T08:13:20.883Z,99614.53
2022-11-23T08:15:53.932Z,99606.50
2022-11-23T08:18:23.056Z,99611.63
2022-11-23T08:20:50.895Z,99613.41
2022-11-23T08:23:18.696Z,99609.56
2022-11-23T08:25:48.162Z,99629.50
2022-11-23T08:28:15.874Z,99621.91
2022-11-23T08:30:43.608Z,99627.84
2022-11-23T08:33:11.303Z,99622.72
2022-11-23T08:35:40.008Z,99631.44
2022-11-23T08:38:09.027Z,99629.66
2022-11-23T08:40:37.129Z,99629.38
2022-11-23T08:43:06.589Z,99634.47
2022-11-23T08:45:34.518Z,99637.84
2022-11-23T08:48:02.503Z,99628.38
2022-11-23T08:50:30.602Z,99631.84
2022-11-23T08:52:58.986Z,99629.22
2022-11-23T08:55:27.568Z,99632.56
2022-11-23T08:57:56.124Z,99627.16
2022-11-23T09:00:25.873Z,99633.09
2022-11-23T09:02:53.582Z,99618.00
2022-11-23T09:05:21.813Z,99627.72
2022-11-23T09:07:49.587Z,99626.59
2022-11-23T09:10:19.106Z,99628.94
2022-11-23T09:12:47.190Z,99625.31
2022-11-23T09:15:15.014Z,99625.44
2022-11-23T09:17:44.531Z,99630.88
2022-11-23T09:20:13.105Z,99626.56
2022-11-23T09:22:40.729Z,99624.09
2022-11-23T09:25:10.289Z,99623.66
2022-11-23T09:27:38.065Z,99620.06
2022-11-23T09:30:06.743Z,99618.41
2022-11-23T09:32:34.397Z,99620.75
2022-11-23T09:35:03.454Z,99628.66
2022-11-23T09:37:31.165Z,99640.00
2022-11-23T09:39:58.799Z,99626.69
2022-11-23T09:42:38.550Z,99625.03
2022-11-23T09:45:20.244Z,99629.91
2022-11-23T09:48:00.942Z,99624.47
2022-11-23T09:50:35.519Z,99627.75
2022-11-23T09:53:07.008Z,99631.38
2022-11-23T09:55:38.588Z,99616.97
2022-11-23T09:58:07.381Z,99617.38
2022-11-23T10:00:38.917Z,99620.53
2022-11-23T10:03:06.577Z,99617.75
2022-11-23T10:05:39.003Z,99622.75
2022-11-23T10:08:12.918Z,99614.84
2022-11-23T10:10:44.376Z,99609.13
2022-11-23T10:14:01.101Z,99614.66
2022-11-23T10:17:19.743Z,99618.53
2022-11-23T10:19:58.375Z,99612.13
2022-11-23T10:22:30.458Z,99616.28
2022-11-23T10:24:58.053Z,99614.19
2022-11-23T10:27:26.338Z,99605.00
2022-11-23T10:29:56.405Z,99614.28
2022-11-23T10:32:31.976Z,99603.44
2022-11-23T10:35:04.328Z,99603.97
2022-11-23T10:39:45.515Z,99618.00
2022-11-23T10:42:20.138Z,99616.03
2022-11-23T10:44:48.726Z,99615.59
2022-11-23T10:47:35.091Z,99618.09
2022-11-23T10:50:03.912Z,99614.47
2022-11-23T10:52:32.883Z,99602.94
2022-11-23T10:55:03.902Z,99596.97
2022-11-23T10:57:33.842Z,99588.91
2022-11-23T11:00:04.618Z,99601.97
2022-11-23T11:02:39.545Z,99601.13
2022-11-23T11:05:53.440Z,99583.94
2022-11-23T11:08:16.923Z,99584.63
2022-11-23T11:10:50.118Z,99571.97
2022-11-23T11:13:29.850Z,99574.16
2022-11-23T11:15:59.588Z,99575.81
2022-11-23T11:18:32.380Z,99571.06
2022-11-23T11:21:03.284Z,99571.59
2022-11-23T11:23:32.079Z,99565.88
2022-11-23T11:26:09.744Z,99552.38
2022-11-23T11:28:40.314Z,99557.38
2022-11-23T11:31:34.895Z,99558.94
2022-11-23T11:34:09.287Z,99553.50
2022-11-23T11:36:40.554Z,99547.94
2022-11-23T11:39:20.709Z,99547.84
2022-11-23T11:41:51.068Z,99554.34
2022-11-23T11:44:21.540Z,99553.34
2022-11-23T11:46:53.872Z,99548.75
2022-11-23T11:49:56.317Z,99542.94
2022-11-23T11:52:27.265Z,99545.28
2022-11-23T11:54:57.632Z,99542.63
2022-11-23T11:57:29.448Z,99542.63
2022-11-23T12:02:36.154Z,99537.88
2022-11-23T12:05:12.799Z,99531.28
2022-11-23T12:07:45.522Z,99547.38
2022-11-23T12:10:17.388Z,99540.59
2022-11-23T12:12:45.263Z,99551.16
2022-11-23T12:15:47.640Z,99551.16
2022-11-23T12:18:26.951Z,99561.41
2022-11-23T12:20:58.772Z,99555.97
2022-11-23T12:23:34.863Z,99552.81
2022-11-23T12:26:13.693Z,99552.88
2022-11-23T12:29:00.199Z,99538.50
2022-11-23T12:31:40.779Z,99539.75
2022-11-23T12:34:17.744Z,99550.16
2022-11-23T12:37:00.804Z,99541.06
2022-11-23T12:39:43.354Z,99544.97
2022-11-23T12:42:13.935Z,99544.16
2022-11-23T12:44:54.451Z,99549.97
2022-11-23T12:47:29.942Z,99549.97
2022-11-23T12:50:04.675Z,99547.00
2022-11-23T12:52:47.243Z,99551.97
2022-11-23T12:55:20.504Z,99547.41
2022-11-23T12:57:51.401Z,99548.00
2022-11-23T13:00:20.877Z,99551.91
2022-11-23T13:03:13.605Z,99546.28
2022-11-23T13:10:14.146Z,99532.16
2022-11-23T13:13:14.042Z,99541.06
2022-11-23T13:16:02.605Z,99538.03
2022-11-23T13:18:42.898Z,99526.81
2022-11-23T13:21:18.926Z,99519.56
2022-11-23T13:23:46.728Z,99524.69
2022-11-23T13:26:17.759Z,99510.06
2022-11-23T13:28:45.957Z,99516.16
2022-11-23T13:31:27.764Z,99510.72
2022-11-23T13:33:56.746Z,99508.75
2022-11-23T13:37:15.292Z,99502.81
2022-11-23T13:40:04.082Z,99500.47
2022-11-23T13:42:34.983Z,99497.47
2022-11-23T13:45:23.507Z,99498.13
2022-11-23T13:48:34.342Z,99500.75
2022-11-23T13:51:02.357Z,99499.44
2022-11-23T13:53:32.516Z,99502.34
2022-11-23T13:56:18.816Z,99487.81
2022-11-23T13:58:55.684Z,99503.28
2022-11-23T14:02:04.372Z,99502.75
2022-11-23T14:04:33.068Z,99504.03
2022-11-23T14:07:03.666Z,99494.63
2022-11-23T14:09:35.656Z,99486.91
2022-11-23T14:12:08.556Z,99496.88
2022-11-23T14:14:48.369Z,99492.19
2022-11-23T14:22:02.404Z,99495.06
2022-11-23T14:26:29.775Z,99502.31
2022-11-23T14:29:24.216Z,99500.78
2022-11-23T14:32:00.969Z,99508.84
2022-11-23T14:34:35.723Z,99498.63
2022-11-23T14:37:09.441Z,99495.31
2022-11-23T14:39:55.404Z,99507.78
2022-11-23T14:42:26.492Z,99497.53
2022-11-23T14:44:54.669Z,99488.88
2022-11-23T14:47:30.372Z,99498.13
2022-11-23T14:49:58.700Z,99511.47
2022-11-23T14:52:28.524Z,99522.47
2022-11-23T14:54:57.644Z,99525.41
2022-11-23T14:57:29.158Z,99524.72
2022-11-23T14:59:58.606Z,99529.28
2022-11-23T15:02:32.506Z,99536.53
2022-11-23T15:05:07.767Z,99545.00
2022-11-23T15:07:44.831Z,99553.03
2022-11-23T15:10:22.740Z,99554.69
2022-11-23T15:12:51.804Z,99555.81
2022-11-23T15:15:21.081Z,99566.09
2022-11-23T15:17:52.950Z,99565.22
2022-11-23T15:21:22.601Z,99559.13
2022-11-23T15:23:54.296Z,99560.09
2022-11-23T15:26:46.118Z,99562.91
2022-11-23T15:29:33.519Z,99564.28
2022-11-23T15:34:50.546Z,99574.13
2022-11-23T15:37:20.011Z,99584.66
2022-11-23T15:39:48.408Z,99584.66
2022-11-23T15:42:18.599Z,99594.84
2022-11-23T15:44:51.227Z,99600.00
2022-11-23T15:47:22.852Z,99601.41
2022-11-23T15:49:51.040Z,99605.59
2022-11-23T15:53:55.488Z,99607.94
2022-11-23T15:56:55.357Z,99619.03
2022-11-23T15:59:31.585Z,99613.66
2022-11-23T16:02:00.380Z,99604.66
2022-11-23T16:04:36.504Z,99604.75
2022-11-23T16:07:16.538Z,99601.75
2022-11-23T16:09:52.358Z,99609.50
2022-11-23T16:12:25.636Z,99606.03
2022-11-23T16:14:54.128Z,99609.09
2022-11-23T16:17:23.707Z,99606.59
2022-11-23T16:19:52.743Z,99609.38
2022-11-23T16:22:24.914Z,99610.50
2022-11-23T16:24:55.495Z,99610.91
2022-11-23T16:27:25.833Z,99628.09
2022-11-23T16:29:57.586Z,99621.97
2022-11-23T16:32:30.785Z,99629.50
2022-11-23T16:35:00.499Z,99632.66
2022-11-23T16:37:28.934Z,99631.84
2022-11-23T16:39:56.969Z,99633.34
2022-11-23T16:42:27.092Z,99623.94
2022-11-23T16:44:54.800Z,99635.16
2022-11-23T16:47:25.056Z,99633.50
2022-11-23T16:49:53.636Z,99627.25
2022-11-23T16:52:22.626Z,99620.06
2022-11-23T16:54:50.496Z,99624.50
2022-11-23T16:57:21.597Z,99621.88
2022-11-23T16:59:50.980Z,99623.78
2022-11-23T17:02:19.307Z,99631.16
2022-11-23T17:04:47.128Z,99639.22
2022-11-23T17:07:15.038Z,99638.38
2022-11-23T17:12:00.059Z,99617.31
2022-11-23T17:14:29.740Z,99608.41
2022-11-23T17:17:02.233Z,99615.06
2022-11-23T17:19:30.347Z,99626.44
2022-11-23T17:21:58.446Z,99629.22
2022-11-23T17:24:26.084Z,99646.84
2022-11-23T17:26:54.267Z,99657.50
2022-11-23T17:29:24.119Z,99677.75
2022-11-23T17:31:52.103Z,99672.34
2022-11-23T17:34:19.782Z,99679.41
2022-11-23T17:36:48.621Z,99686.06
2022-11-23T17:39:20.201Z,99693.56
2022-11-23T17:41:49.135Z,99685.91
2022-11-23T17:44:17.566Z,99700.72
2022-11-23T17:46:47.203Z,99699.91
2022-11-23T17:49:16.990Z,99696.19
2022-11-23T17:51:44.621Z,99701.31
2022-11-23T17:54:12.345Z,99705.75
2022-11-23T17:56:40.053Z,99713.75
2022-11-23T17:59:08.085Z,99717.25
2022-11-23T18:01:35.947Z,99718.09
2022-11-23T18:04:05.308Z,99718.09
2022-11-23T18:06:33.048Z,99724.28
2022-11-23T18:09:00.721Z,99720.97
2022-11-23T18:11:28.824Z,99714.88
2022-11-23T18:13:56.516Z,99729.84
2022-11-23T18:16:24.354Z,99736.78
2022-11-23T18:18:52.273Z,99728.19
2022-11-23T18:21:21.323Z,99734.28
2022-11-23T18:23:49.007Z,99729.69
2022-11-23T18:26:21.306Z,99727.91
2022-11-23T18:28:49.440Z,99722.63
2022-11-23T18:31:17.155Z,99732.34
2022-11-23T18:33:45.064Z,99735.81
2022-11-23T18:36:13.172Z,99737.06
2022-11-23T18:38:44.753Z,99749.66
2022-11-23T18:41:13.177Z,99746.47
2022-11-23T18:43:40.886Z,99755.88
2022-11-23T18:46:10.210Z,99754.22
2022-11-23T18:48:38.524Z,99759.63
2022-11-23T18:51:11.525Z,99764.06
2022-11-23T18:53:39.146Z,99764.06
2022-11-23T18:56:09.947Z,99769.34
2022-11-23T18:58:39.360Z,99770.16
2022-11-23T19:01:12.660Z,99780.84
2022-11-23T19:03:41.884Z,99774.59
2022-11-23T19:06:11.875Z,99763.38
2022-11-23T19:08:40.068Z,99772.66
2022-11-23T19:11:12.781Z,99779.59
2022-11-23T19:13:40.919Z,99776.25
2022-11-23T19:16:10.538Z,99785.81
2022-11-23T19:18:38.452Z,99778.63
2022-11-23T19:21:13.682Z,99780.56
2022-11-23T19:23:41.450Z,99791.91
2022-11-23T19:26:10.601Z,99789.88
2022-11-23T19:28:38.649Z,99784.72
2022-11-23T19:31:14.007Z,99805.66
2022-11-23T19:33:42.013Z,99804.94
2022-11-23T19:36:11.541Z,99816.91
2022-11-23T19:38:39.567Z,99834.63
2022-11-23T19:41:07.728Z,99824.94
2022-11-23T19:43:37.209Z,99836.28
2022-11-23T19:46:07.241Z,99838.94
2022-11-23T19:48:35.267Z,99842.25
2022-11-23T19:51:04.625Z,99849.19
2022-11-23T19:53:33.951Z,99847.38
2022-11-23T19:56:03.104Z,99852.66
2022-11-23T19:58:35.339Z,99846.31
2022-11-23T20:01:06.412Z,99845.56
2022-11-23T20:03:35.705Z,99858.50
2022-11-23T20:06:06.009Z,99867.22
2022-11-23T20:08:33.843Z,99869.03
2022-11-23T20:11:07.535Z,99866.78
2022-11-23T20:13:36.027Z,99859.41
2022-11-23T20:16:06.625Z,99882.91
2022-11-23T20:18:34.595Z,99875.13
2022-11-23T20:21:02.868Z,99881.09
2022-11-23T20:23:30.835Z,99882.91
2022-11-23T20:25:59.056Z,99876.66
2022-11-23T20:28:27.109Z,99870.69
2022-11-23T20:30:54.860Z,99870.69
2022-11-23T20:33:23.940Z,99877.63
2022-11-23T20:35:51.888Z,99883.72
2022-11-23T20:38:19.690Z,99880.25
2022-11-23T20:40:47.458Z,99887.47
2022-11-23T20:43:15.482Z,99893.72
2022-11-23T20:45:43.184Z,99869.13
2022-11-23T20:48:10.864Z,99881.06
2022-11-23T20:50:39.972Z,99888.97
2022-11-23T20:53:07.747Z,99888.97
2022-11-23T20:55:36.569Z,99900.63
2022-11-23T20:58:04.329Z,99901.59
2022-11-23T21:00:32.143Z,99899.81
2022-11-23T21:02:59.886Z,99913.00
2022-11-23T21:05:27.744Z,99922.84
2022-11-23T21:13:03.683Z,99917.81
2022-11-23T21:15:31.367Z,99923.09
2022-11-23T21:17:58.959Z,99922.13
2022-11-23T21:20:26.647Z,99913.66
2022-11-23T21:22:54.304Z,99920.97
2022-11-23T21:25:21.925Z,99926.53
2022-11-23T21:27:50.985Z,99933.59
2022-11-23T21:30:18.915Z,99934.69
2022-11-23T21:32:50.482Z,99930.50
2022-11-23T21:35:18.149Z,99934.13
2022-11-23T21:37:45.781Z,99942.16
2022-11-23T21:40:13.601Z,99942.44
2022-11-23T21:42:41.226Z,99945.16
2022-11-23T21:45:10.926Z,99942.94
2022-11-23T21:47:38.617Z,99956.34
2022-11-23T21:50:06.951Z,99948.72
2022-11-23T21:52:34.585Z,99944.44
2022-11-23T21:55:02.257Z,99952.56
2022-11-23T21:57:29.960Z,99945.63
2022-11-23T21:59:57.796Z,99950.91
2022-11-23T22:02:27.081Z,99957.97
2022-11-23T22:04:55.013Z,99965.88
2022-11-23T22:07:22.807Z,99959.06
2022-11-23T22:09:50.712Z,99967.34
2022-11-23T22:12:18.501Z,99962.22
2022-11-23T22:14:46.239Z,99971.09
2022-11-23T22:17:14.002Z,99972.19
2022-11-23T22:19:43.149Z,99989.03
2022-11-23T22:22:10.901Z,99980.44
2022-11-23T22:24:38.623Z,99955.16
2022-11-23T22:27:06.400Z,99974.72
2022-11-23T22:29:34.206Z,99976.78
2022-11-23T22:32:02.304Z,99987.88
2022-11-23T22:34:33.523Z,100006.31
2022-11-23T22:37:07.247Z,99992.06
2022-11-23T22:39:38.215Z,99993.97
2022-11-23T22:42:06.204Z,99998.41
2022-11-23T22:44:34.267Z,99997.44
2022-11-23T22:47:02.206Z,100014.19
2022-11-23T22:49:29.982Z,100006.31
2022-11-23T22:51:58.000Z,100015.16
2022-11-23T22:54:28.778Z,100011.13
2022-11-23T22:56:56.550Z,100018.19
2022-11-23T22:59:24.263Z,100025.50
2022-11-23T23:01:52.029Z,100034.09
2022-11-23T23:04:19.766Z,100030.63
2022-11-23T23:06:48.885Z,100036.00
2022-11-23T23:09:16.920Z,100041.97
2022-11-23T23:11:46.090Z,100045.56
2022-11-23T23:14:13.847Z,100045.69
2022-11-23T23:16:41.634Z,100050.97
2022-11-23T23:19:09.581Z,100052.75
2022-11-23T23:21:37.332Z,100054.44
2022-11-23T23:24:05.703Z,100060.66
2022-11-23T23:26:33.503Z,100068.41
2022-11-23T23:29:02.713Z,100052.91
2022-11-23T23:31:30.944Z,100059.56
2022-11-23T23:34:01.014Z,100055.41
2022-11-23T23:36:29.559Z,100057.56
2022-11-23T23:38:57.814Z,100060.78
2022-11-23T23:41:25.581Z,100055.88
2022-11-23T23:43:53.538Z,100069.50
2022-11-23T23:46:22.882Z,100065.22
2022-11-23T23:48:50.933Z,100063.66
2022-11-23T23:51:20.815Z,100068.59
2022-11-23T23:53:48.897Z,100073.34
2022-11-23T23:56:18.040Z,100069.88
2022-11-23T23:58:46.284Z,100078.59
